createdAt,value
2022-08-26T00:01:32.302Z,97200.48
2022-08-26T00:04:01.808Z,97199.84
2022-08-26T00:06:30.588Z,97201.16
2022-08-26T00:08:58.934Z,97196.27
2022-08-26T00:11:27.202Z,97201.66
2022-08-26T00:13:56.552Z,97200.05
2022-08-26T00:16:25.258Z,97193.16
2022-08-26T00:18:52.812Z,97193.30
2022-08-26T00:21:20.348Z,97196.70
2022-08-26T00:23:47.599Z,97197.58
2022-08-26T00:26:15.172Z,97195.00
2022-08-26T00:28:42.443Z,97186.73
2022-08-26T00:31:11.262Z,97188.00
2022-08-26T00:33:39.471Z,97187.70
2022-08-26T00:36:07.377Z,97187.80
2022-08-26T00:38:38.301Z,97182.50
2022-08-26T00:41:06.710Z,97185.16
2022-08-26T00:43:47.398Z,97183.53
2022-08-26T00:46:14.028Z,97186.77
2022-08-26T00:48:44.532Z,97182.84
2022-08-26T00:51:15.860Z,97189.57
2022-08-26T00:53:49.084Z,97191.69
2022-08-26T00:56:22.526Z,97196.59
2022-08-26T00:58:50.514Z,97193.25
2022-08-26T01:01:18.151Z,97186.41
2022-08-26T01:03:46.156Z,97190.63
2022-08-26T01:06:13.937Z,97190.22
2022-08-26T01:08:41.349Z,97193.86
2022-08-26T01:11:09.221Z,97196.16
2022-08-26T01:13:37.959Z,97200.00
2022-08-26T01:16:07.781Z,97201.30
2022-08-26T01:18:35.486Z,97200.09
2022-08-26T01:21:23.025Z,97203.95
2022-08-26T01:23:57.423Z,97203.89
2022-08-26T01:26:25.943Z,97201.50
2022-08-26T01:28:54.977Z,97201.20
2022-08-26T01:31:25.292Z,97197.45
2022-08-26T01:34:05.237Z,97199.12
2022-08-26T01:36:32.681Z,97200.38
2022-08-26T01:38:59.856Z,97193.00
2022-08-26T01:41:29.173Z,97199.34
2022-08-26T01:43:56.807Z,97196.19
2022-08-26T01:46:26.470Z,97199.27
2022-08-26T01:48:55.108Z,97193.99
2022-08-26T01:51:24.271Z,97189.29
2022-08-26T01:53:51.611Z,97186.95
2022-08-26T01:56:22.362Z,97188.11
2022-08-26T01:58:52.702Z,97186.89
2022-08-26T02:01:21.467Z,97187.80
2022-08-26T02:03:57.960Z,97183.53
2022-08-26T02:06:26.583Z,97182.55
2022-08-26T02:08:56.433Z,97186.76
2022-08-26T02:11:23.763Z,97192.11
2022-08-26T02:13:54.776Z,97188.19
2022-08-26T02:16:24.586Z,97192.82
2022-08-26T02:18:54.258Z,97192.62
2022-08-26T02:21:22.311Z,97188.48
2022-08-26T02:23:51.865Z,97192.55
2022-08-26T02:26:22.035Z,97188.05
2022-08-26T02:28:55.559Z,97188.63
2022-08-26T02:31:23.673Z,97184.12
2022-08-26T02:33:51.051Z,97191.27
2022-08-26T02:36:24.496Z,97189.13
2022-08-26T02:38:53.692Z,97194.55
2022-08-26T02:41:23.119Z,97194.34
2022-08-26T02:43:50.368Z,97188.92
2022-08-26T02:46:27.619Z,97192.62
2022-08-26T02:48:47.250Z,97193.77
2022-08-26T02:51:14.550Z,97188.35
2022-08-26T02:53:42.057Z,97191.41
2022-08-26T02:56:10.641Z,97189.47
2022-08-26T02:58:38.005Z,97191.98
2022-08-26T03:01:05.616Z,97194.89
2022-08-26T03:03:34.142Z,97194.89
2022-08-26T03:06:01.398Z,97190.83
2022-08-26T03:08:28.655Z,97196.89
2022-08-26T03:10:55.827Z,97201.73
2022-08-26T03:13:23.191Z,97195.53
2022-08-26T03:15:50.422Z,97201.89
2022-08-26T03:18:17.629Z,97204.94
2022-08-26T03:20:44.870Z,97210.52
2022-08-26T03:23:12.341Z,97209.64
2022-08-26T03:25:39.612Z,97217.86
2022-08-26T03:28:06.744Z,97218.77
2022-08-26T03:30:44.736Z,97220.59
2022-08-26T03:33:11.719Z,97220.31
2022-08-26T03:35:41.168Z,97219.23
2022-08-26T03:38:09.066Z,97205.75
2022-08-26T03:40:37.067Z,97204.48
2022-08-26T03:43:05.934Z,97208.81
2022-08-26T03:45:33.690Z,97212.45
2022-08-26T03:48:01.156Z,97206.02
2022-08-26T03:50:30.517Z,97213.00
2022-08-26T03:52:59.699Z,97212.09
2022-08-26T03:55:31.454Z,97212.81
2022-08-26T03:57:59.624Z,97211.16
2022-08-26T04:00:27.053Z,97217.54
2022-08-26T04:02:54.398Z,97213.16
2022-08-26T04:05:22.857Z,97216.63
2022-08-26T04:07:50.992Z,97213.70
2022-08-26T04:10:20.827Z,97206.49
2022-08-26T04:12:48.056Z,97205.95
2022-08-26T04:15:16.346Z,97206.27
2022-08-26T04:17:45.293Z,97206.96
2022-08-26T04:20:13.457Z,97201.00
2022-08-26T04:22:42.731Z,97209.81
2022-08-26T04:25:11.339Z,97204.67
2022-08-26T04:27:38.748Z,97208.80
2022-08-26T04:30:08.832Z,97203.05
2022-08-26T04:32:36.484Z,97202.34
2022-08-26T04:35:04.703Z,97194.67
2022-08-26T04:37:33.539Z,97196.19
2022-08-26T04:40:01.000Z,97192.08
2022-08-26T04:42:29.309Z,97196.14
2022-08-26T04:44:56.468Z,97200.80
2022-08-26T04:47:24.160Z,97201.95
2022-08-26T04:49:56.999Z,97199.78
2022-08-26T04:52:24.793Z,97211.55
2022-08-26T04:54:52.717Z,97210.33
2022-08-26T04:57:19.984Z,97210.34
2022-08-26T04:59:47.694Z,97206.36
2022-08-26T05:02:17.865Z,97196.94
2022-08-26T05:04:47.049Z,97194.10
2022-08-26T05:07:15.288Z,97183.08
2022-08-26T05:09:46.331Z,97180.57
2022-08-26T05:12:13.708Z,97183.08
2022-08-26T05:14:44.091Z,97188.53
2022-08-26T05:17:14.813Z,97188.52
2022-08-26T05:19:42.937Z,97189.72
2022-08-26T05:22:10.345Z,97186.09
2022-08-26T05:24:40.542Z,97190.74
2022-08-26T05:27:11.707Z,97186.36
2022-08-26T05:29:37.028Z,97184.56
2022-08-26T05:32:05.048Z,97179.70
2022-08-26T05:34:32.458Z,97185.28
2022-08-26T05:36:59.747Z,97189.29
2022-08-26T05:39:27.230Z,97189.10
2022-08-26T05:41:54.547Z,97191.06
2022-08-26T05:44:22.430Z,97183.08
2022-08-26T05:46:49.782Z,97189.37
2022-08-26T05:49:18.604Z,97187.67
2022-08-26T05:51:46.599Z,97194.09
2022-08-26T05:54:21.973Z,97187.30
2022-08-26T05:56:48.671Z,97190.41
2022-08-26T05:59:15.861Z,97200.06
2022-08-26T06:01:45.115Z,97196.36
2022-08-26T06:04:13.872Z,97190.14
2022-08-26T06:06:46.039Z,97195.39
2022-08-26T06:09:14.145Z,97206.64
2022-08-26T06:11:43.281Z,97199.56
2022-08-26T06:14:11.176Z,97202.48
2022-08-26T06:16:43.001Z,97198.18
2022-08-26T06:19:14.786Z,97195.61
2022-08-26T06:21:47.979Z,97189.16
2022-08-26T06:24:35.764Z,97190.38
2022-08-26T06:27:07.708Z,97192.36
2022-08-26T06:29:38.920Z,97195.13
2022-08-26T06:32:06.385Z,97193.11
2022-08-26T06:34:34.253Z,97190.30
2022-08-26T06:37:02.433Z,97185.84
2022-08-26T06:39:31.645Z,97186.16
2022-08-26T06:41:59.757Z,97188.12
2022-08-26T06:44:27.453Z,97185.99
2022-08-26T06:46:57.419Z,97185.05
2022-08-26T06:49:27.137Z,97185.02
2022-08-26T06:51:57.317Z,97180.63
2022-08-26T06:54:26.830Z,97180.91
2022-08-26T06:56:56.089Z,97179.89
2022-08-26T06:59:23.637Z,97180.17
2022-08-26T07:01:51.726Z,97171.30
2022-08-26T07:04:22.354Z,97173.89
2022-08-26T07:06:52.325Z,97168.55
2022-08-26T07:09:21.993Z,97168.70
2022-08-26T07:11:50.726Z,97172.11
2022-08-26T07:14:21.304Z,97167.07
2022-08-26T07:16:49.006Z,97166.75
2022-08-26T07:19:28.486Z,97157.28
2022-08-26T07:21:48.065Z,97159.33
2022-08-26T07:24:16.875Z,97154.70
2022-08-26T07:26:44.875Z,97153.91
2022-08-26T07:29:12.891Z,97152.63
2022-08-26T07:31:42.409Z,97139.55
2022-08-26T07:34:13.285Z,97142.97
2022-08-26T07:36:41.468Z,97140.34
2022-08-26T07:39:09.208Z,97134.48
2022-08-26T07:41:36.900Z,97132.94
2022-08-26T07:44:05.655Z,97130.66
2022-08-26T07:46:34.820Z,97123.23
2022-08-26T07:49:04.108Z,97124.30
2022-08-26T07:51:32.078Z,97122.16
2022-08-26T07:54:10.712Z,97123.36
2022-08-26T07:56:39.767Z,97119.28
2022-08-26T07:59:14.052Z,97116.20
2022-08-26T08:01:39.883Z,97112.48
2022-08-26T08:04:07.566Z,97108.58
2022-08-26T08:06:38.090Z,97107.30
2022-08-26T08:09:05.350Z,97099.21
2022-08-26T08:11:34.129Z,97099.48
2022-08-26T08:14:02.863Z,97093.03
2022-08-26T08:16:33.449Z,97096.63
2022-08-26T08:19:01.670Z,97091.73
2022-08-26T08:21:30.595Z,97093.22
2022-08-26T08:23:59.269Z,97087.80
2022-08-26T08:26:26.765Z,97088.86
2022-08-26T08:28:55.718Z,97088.55
2022-08-26T08:31:54.497Z,97080.73
2022-08-26T08:33:57.627Z,97083.14
2022-08-26T08:36:25.285Z,97084.41
2022-08-26T08:38:54.458Z,97080.60
2022-08-26T08:41:56.015Z,97077.19
2022-08-26T08:44:28.553Z,97080.05
2022-08-26T08:47:09.141Z,97078.59
2022-08-26T08:49:45.386Z,97079.70
2022-08-26T08:52:29.747Z,97076.22
2022-08-26T08:55:00.505Z,97076.13
2022-08-26T08:57:46.609Z,97067.43
2022-08-26T09:00:17.415Z,97071.31
2022-08-26T09:02:48.787Z,97059.48
2022-08-26T09:05:23.135Z,97055.89
2022-08-26T09:08:11.246Z,97057.20
2022-08-26T09:10:41.186Z,97053.47
2022-08-26T09:13:16.916Z,97049.91
2022-08-26T09:16:03.386Z,97051.34
2022-08-26T09:18:53.957Z,97042.01
2022-08-26T09:21:29.439Z,97037.99
2022-08-26T09:24:11.298Z,97035.95
2022-08-26T09:26:42.616Z,97040.39
2022-08-26T09:29:24.310Z,97038.19
2022-08-26T09:31:56.698Z,97030.55
2022-08-26T09:34:27.973Z,97024.70
2022-08-26T09:36:57.888Z,97028.89
2022-08-26T09:39:40.387Z,97021.27
2022-08-26T09:42:19.539Z,97014.61
2022-08-26T09:44:58.961Z,97012.72
2022-08-26T09:47:48.031Z,97014.04
2022-08-26T09:50:37.225Z,97011.13
2022-08-26T09:53:15.250Z,97021.43
2022-08-26T09:55:44.933Z,97022.13
2022-08-26T09:58:15.123Z,97013.58
2022-08-26T10:00:57.397Z,97009.58
2022-08-26T10:03:28.343Z,97010.61
2022-08-26T10:06:04.357Z,97003.94
2022-08-26T10:08:34.434Z,97010.20
2022-08-26T10:11:05.307Z,97005.81
2022-08-26T10:13:41.779Z,97000.48
2022-08-26T10:16:13.117Z,96999.38
2022-08-26T10:18:56.841Z,97002.38
2022-08-26T10:21:35.495Z,96998.11
2022-08-26T10:24:04.591Z,96998.95
2022-08-26T10:26:47.966Z,96993.00
2022-08-26T10:29:25.924Z,96992.43
2022-08-26T10:31:58.745Z,96988.16
2022-08-26T10:34:26.348Z,96992.92
2022-08-26T10:37:15.041Z,96992.34
2022-08-26T10:39:43.490Z,96997.05
2022-08-26T10:42:23.180Z,96988.26
2022-08-26T10:44:52.720Z,96985.84
2022-08-26T10:47:26.177Z,96982.92
2022-08-26T10:49:57.536Z,96981.38
2022-08-26T10:52:35.581Z,96983.40
2022-08-26T10:55:06.749Z,96979.12
2022-08-26T10:57:45.173Z,96980.40
2022-08-26T11:00:40.703Z,96975.04
2022-08-26T11:03:41.093Z,96969.17
2022-08-26T11:06:22.577Z,96961.66
2022-08-26T11:08:53.295Z,96967.17
2022-08-26T11:11:42.255Z,96963.05
2022-08-26T11:14:12.753Z,96965.78
2022-08-26T11:16:48.165Z,96957.50
2022-08-26T11:19:59.576Z,96961.03
2022-08-26T11:22:27.579Z,96954.73
2022-08-26T11:25:02.445Z,96954.94
2022-08-26T11:27:44.168Z,96950.77
2022-08-26T11:30:30.485Z,96951.87
2022-08-26T11:33:11.270Z,96950.61
2022-08-26T11:35:44.409Z,96945.01
2022-08-26T11:38:26.011Z,96940.27
2022-08-26T11:41:11.544Z,96939.11
2022-08-26T11:43:49.803Z,96935.02
2022-08-26T11:46:33.848Z,96932.72
2022-08-26T11:49:08.932Z,96933.92
2022-08-26T11:51:48.158Z,96927.30
2022-08-26T11:57:15.625Z,96924.86
2022-08-26T11:59:47.803Z,96924.14
2022-08-26T12:02:20.562Z,96921.41
2022-08-26T12:04:55.869Z,96913.09
2022-08-26T12:07:29.526Z,96920.52
2022-08-26T12:10:06.566Z,96915.50
2022-08-26T12:12:39.261Z,96918.10
2022-08-26T12:15:20.054Z,96915.38
2022-08-26T12:17:54.536Z,96912.58
2022-08-26T12:20:50.737Z,96907.66
2022-08-26T12:23:38.093Z,96910.45
2022-08-26T12:26:28.974Z,96911.22
2022-08-26T12:29:09.981Z,96910.12
2022-08-26T12:31:41.265Z,96907.95
2022-08-26T12:34:18.045Z,96910.25
2022-08-26T12:36:52.909Z,96906.08
2022-08-26T12:39:31.913Z,96905.71
2022-08-26T12:42:02.370Z,96903.69
2022-08-26T12:44:36.628Z,96903.89
2022-08-26T12:47:32.711Z,96900.56
2022-08-26T12:50:10.232Z,96895.62
2022-08-26T12:53:03.452Z,96894.91
2022-08-26T12:55:49.976Z,96890.25
2022-08-26T12:58:32.138Z,96891.70
2022-08-26T13:01:09.062Z,96884.20
2022-08-26T13:03:42.141Z,96888.39
2022-08-26T13:06:27.397Z,96891.78
2022-08-26T13:09:10.499Z,96885.03
2022-08-26T13:11:44.892Z,96897.02
2022-08-26T13:14:21.234Z,96881.98
2022-08-26T13:16:46.415Z,96882.59
2022-08-26T13:19:17.196Z,96888.53
2022-08-26T13:21:49.615Z,96883.30
2022-08-26T13:24:35.582Z,96874.23
2022-08-26T13:27:04.881Z,96878.28
2022-08-26T13:29:32.311Z,96872.50
2022-08-26T13:32:00.368Z,96874.02
2022-08-26T13:34:29.654Z,96876.34
2022-08-26T13:36:57.722Z,96872.78
2022-08-26T13:39:25.826Z,96870.89
2022-08-26T13:41:53.277Z,96863.79
2022-08-26T13:44:21.014Z,96860.54
2022-08-26T13:46:48.541Z,96858.30
2022-08-26T13:49:16.310Z,96866.45
2022-08-26T13:51:47.221Z,96861.22
2022-08-26T13:54:14.432Z,96859.06
2022-08-26T13:56:42.786Z,96852.86
2022-08-26T13:59:12.158Z,96855.23
2022-08-26T14:01:40.191Z,96854.67
2022-08-26T14:04:08.150Z,96853.78
2022-08-26T14:06:35.620Z,96853.78
2022-08-26T14:09:03.186Z,96858.23
2022-08-26T14:11:39.075Z,96853.21
2022-08-26T14:13:59.795Z,96854.54
2022-08-26T14:16:31.039Z,96852.85
2022-08-26T14:19:00.763Z,96849.08
2022-08-26T14:21:33.930Z,96851.86
2022-08-26T14:24:01.625Z,96844.14
2022-08-26T14:26:29.967Z,96849.84
2022-08-26T14:28:59.212Z,96851.93
2022-08-26T14:31:28.595Z,96853.16
2022-08-26T14:33:58.095Z,96847.76
2022-08-26T14:36:28.284Z,96856.94
2022-08-26T14:38:57.663Z,96860.52
2022-08-26T14:41:25.848Z,96855.08
2022-08-26T14:44:01.907Z,96852.30
2022-08-26T14:46:31.175Z,96858.85
2022-08-26T14:49:01.579Z,96855.41
2022-08-26T14:51:29.074Z,96849.91
2022-08-26T14:54:11.576Z,96853.77
2022-08-26T14:56:54.836Z,96849.17
2022-08-26T14:59:25.618Z,96849.25
2022-08-26T15:01:54.201Z,96846.16
2022-08-26T15:04:22.484Z,96849.22
2022-08-26T15:06:51.310Z,96849.78
2022-08-26T15:09:18.833Z,96850.48
2022-08-26T15:11:47.763Z,96851.61
2022-08-26T15:14:19.460Z,96842.44
2022-08-26T15:16:46.278Z,96848.04
2022-08-26T15:19:14.865Z,96845.91
2022-08-26T15:21:42.755Z,96840.09
2022-08-26T15:24:10.365Z,96841.08
2022-08-26T15:26:37.945Z,96844.35
2022-08-26T15:29:05.454Z,96840.98
2022-08-26T15:31:33.427Z,96845.78
2022-08-26T15:34:03.730Z,96837.48
2022-08-26T15:36:32.446Z,96839.05
2022-08-26T15:39:00.322Z,96837.53
2022-08-26T15:41:30.586Z,96842.01
2022-08-26T15:44:00.996Z,96842.80
2022-08-26T15:46:31.549Z,96848.84
2022-08-26T15:48:59.438Z,96842.39
2022-08-26T15:51:32.819Z,96840.73
2022-08-26T15:54:02.491Z,96838.58
2022-08-26T15:56:34.106Z,96834.93
2022-08-26T15:59:10.711Z,96842.48
2022-08-26T16:01:38.177Z,96836.51
2022-08-26T16:04:06.012Z,96838.23
2022-08-26T16:06:36.090Z,96843.17
2022-08-26T16:09:05.446Z,96840.91
2022-08-26T16:11:35.639Z,96840.60
2022-08-26T16:14:04.137Z,96843.08
2022-08-26T16:16:31.623Z,96840.62
2022-08-26T16:19:00.513Z,96839.73
2022-08-26T16:21:28.472Z,96840.19
2022-08-26T16:23:57.090Z,96838.50
2022-08-26T16:26:28.217Z,96841.11
2022-08-26T16:28:55.652Z,96843.55
2022-08-26T16:31:23.450Z,96842.95
2022-08-26T16:33:50.842Z,96846.47
2022-08-26T16:36:19.373Z,96851.08
2022-08-26T16:38:49.651Z,96844.61
2022-08-26T16:41:17.351Z,96848.73
2022-08-26T16:43:45.025Z,96844.99
2022-08-26T16:46:13.618Z,96848.19
2022-08-26T16:48:42.745Z,96848.33
2022-08-26T16:51:12.353Z,96853.34
2022-08-26T16:53:39.958Z,96851.47
2022-08-26T16:56:16.409Z,96848.98
2022-08-26T16:58:43.905Z,96850.28
2022-08-26T17:01:11.590Z,96849.45
2022-08-26T17:03:40.640Z,96841.28
2022-08-26T17:06:08.949Z,96851.06
2022-08-26T17:08:43.385Z,96851.62
2022-08-26T17:11:15.118Z,96858.15
2022-08-26T17:13:43.181Z,96860.91
2022-08-26T17:16:16.291Z,96861.47
2022-08-26T17:18:49.638Z,96866.84
2022-08-26T17:21:16.928Z,96871.57
2022-08-26T17:23:44.599Z,96873.39
2022-08-26T17:26:12.468Z,96882.31
2022-08-26T17:28:40.066Z,96878.09
2022-08-26T17:31:09.092Z,96883.33
2022-08-26T17:33:37.168Z,96880.14
2022-08-26T17:36:07.343Z,96887.94
2022-08-26T17:38:35.663Z,96886.19
2022-08-26T17:41:09.194Z,96891.08
2022-08-26T17:43:37.951Z,96887.07
2022-08-26T17:46:07.741Z,96893.94
2022-08-26T17:48:36.419Z,96894.66
2022-08-26T17:51:16.324Z,96898.02
2022-08-26T17:53:47.465Z,96906.16
2022-08-26T17:56:17.515Z,96905.73
2022-08-26T17:58:51.166Z,96905.31
2022-08-26T18:01:16.447Z,96907.81
2022-08-26T18:03:43.968Z,96915.59
2022-08-26T18:06:18.210Z,96911.80
2022-08-26T18:08:47.741Z,96913.91
2022-08-26T18:11:18.168Z,96910.38
2022-08-26T18:13:47.576Z,96916.55
2022-08-26T18:16:23.331Z,96917.97
2022-08-26T18:18:57.168Z,96921.53
2022-08-26T18:21:28.382Z,96925.83
2022-08-26T18:24:03.382Z,96932.06
2022-08-26T18:26:46.977Z,96931.02
2022-08-26T18:29:30.531Z,96938.19
2022-08-26T18:32:06.346Z,96933.42
2022-08-26T18:34:44.301Z,96936.64
2022-08-26T18:37:35.511Z,96930.64
2022-08-26T18:40:11.116Z,96937.45
2022-08-26T18:42:41.034Z,96928.81
2022-08-26T18:45:09.965Z,96936.98
2022-08-26T18:47:39.602Z,96935.73
2022-08-26T18:50:08.578Z,96937.02
2022-08-26T18:52:37.958Z,96940.84
2022-08-26T18:55:06.363Z,96945.84
2022-08-26T18:57:34.075Z,96937.72
2022-08-26T19:00:05.210Z,96936.03
2022-08-26T19:02:33.691Z,96938.48
2022-08-26T19:05:09.740Z,96940.48
2022-08-26T19:07:48.596Z,96932.20
2022-08-26T19:10:20.485Z,96940.94
2022-08-26T19:12:53.814Z,96938.47
2022-08-26T19:15:24.301Z,96937.97
2022-08-26T19:18:00.032Z,96939.98
2022-08-26T19:20:43.559Z,96940.25
2022-08-26T19:23:30.527Z,96937.77
2022-08-26T19:25:54.116Z,96939.02
2022-08-26T19:28:26.557Z,96945.13
2022-08-26T19:30:56.600Z,96943.98
2022-08-26T19:33:28.341Z,96943.84
2022-08-26T19:35:58.508Z,96938.80
2022-08-26T19:38:27.778Z,96942.22
2022-08-26T19:40:55.757Z,96938.38
2022-08-26T19:43:24.547Z,96934.98
2022-08-26T19:45:53.601Z,96936.08
2022-08-26T19:48:21.684Z,96943.94
2022-08-26T19:50:49.959Z,96947.69
2022-08-26T19:53:19.368Z,96946.77
2022-08-26T19:55:47.909Z,96945.26
2022-08-26T19:58:16.110Z,96946.27
2022-08-26T20:00:57.802Z,96947.84
2022-08-26T20:03:27.125Z,96948.15
2022-08-26T20:05:55.688Z,96952.06
2022-08-26T20:08:25.476Z,96953.64
2022-08-26T20:10:53.811Z,96955.45
2022-08-26T20:13:22.818Z,96958.39
2022-08-26T20:15:50.383Z,96961.36
2022-08-26T20:18:36.110Z,96962.48
2022-08-26T20:21:21.899Z,96960.77
2022-08-26T20:23:50.872Z,96957.08
2022-08-26T20:26:18.577Z,96961.02
2022-08-26T20:28:45.862Z,96959.50
2022-08-26T20:31:16.045Z,96961.84
2022-08-26T20:33:46.282Z,96969.65
2022-08-26T20:36:13.636Z,96971.84
2022-08-26T20:38:42.972Z,96966.78
2022-08-26T20:41:11.098Z,96976.19
2022-08-26T20:43:38.698Z,96974.45
2022-08-26T20:46:18.203Z,96970.78
2022-08-26T20:48:35.727Z,96970.59
2022-08-26T20:51:03.634Z,96970.61
2022-08-26T20:53:31.650Z,96964.98
2022-08-26T20:56:00.654Z,96978.48
2022-08-26T20:58:28.545Z,96970.30
2022-08-26T21:00:56.582Z,96971.09
2022-08-26T21:03:27.468Z,96974.61
2022-08-26T21:05:54.897Z,96977.95
2022-08-26T21:08:22.337Z,96974.84
2022-08-26T21:10:50.724Z,96968.63
2022-08-26T21:13:19.923Z,96970.74
2022-08-26T21:15:47.419Z,96965.30
2022-08-26T21:18:15.057Z,96968.44
2022-08-26T21:20:42.533Z,96972.91
2022-08-26T21:23:10.156Z,96972.73
2022-08-26T21:25:37.710Z,96967.28
2022-08-26T21:28:05.033Z,96967.48
2022-08-26T21:30:33.652Z,96961.66
2022-08-26T21:33:04.232Z,96961.45
2022-08-26T21:35:33.657Z,96958.17
2022-08-26T21:38:01.227Z,96961.09
2022-08-26T21:40:28.949Z,96964.20
2022-08-26T21:42:56.541Z,96966.38
2022-08-26T21:45:23.861Z,96967.75
2022-08-26T21:47:51.322Z,96967.17
2022-08-26T21:50:19.065Z,96961.33
2022-08-26T21:52:46.863Z,96958.43
2022-08-26T21:55:14.330Z,96961.54
2022-08-26T21:57:41.860Z,96958.23
2022-08-26T22:00:11.931Z,96961.38
2022-08-26T22:02:39.353Z,96959.03
2022-08-26T22:05:07.227Z,96958.82
2022-08-26T22:07:34.713Z,96959.41
2022-08-26T22:10:02.106Z,96966.22
2022-08-26T22:12:29.567Z,96965.03
2022-08-26T22:14:57.014Z,96969.30
2022-08-26T22:17:24.561Z,96971.64
2022-08-26T22:19:52.352Z,96972.41
2022-08-26T22:22:19.760Z,96978.60
2022-08-26T22:24:47.553Z,96974.31
2022-08-26T22:27:15.013Z,96976.03
2022-08-26T22:29:42.296Z,96971.52
2022-08-26T22:32:09.953Z,96977.16
2022-08-26T22:34:37.296Z,96975.78
2022-08-26T22:37:05.082Z,96979.05
2022-08-26T22:39:33.358Z,96975.52
2022-08-26T22:42:00.547Z,96975.52
2022-08-26T22:44:28.091Z,96968.35
2022-08-26T22:46:55.533Z,96971.84
2022-08-26T22:49:23.713Z,96970.88
2022-08-26T22:51:51.090Z,96975.74
2022-08-26T22:54:18.813Z,96967.95
2022-08-26T22:56:46.122Z,96967.75
2022-08-26T22:59:15.492Z,96969.51
2022-08-26T23:01:43.467Z,96969.51
2022-08-26T23:04:10.947Z,96965.43
2022-08-26T23:06:41.246Z,96970.28
2022-08-26T23:09:09.579Z,96967.56
2022-08-26T23:11:39.187Z,96965.43
2022-08-26T23:14:08.507Z,96962.48
2022-08-26T23:16:39.269Z,96963.66
2022-08-26T23:19:08.283Z,96965.21
2022-08-26T23:21:35.642Z,96961.91
2022-08-26T23:24:03.694Z,96958.05
2022-08-26T23:26:31.353Z,96965.03
2022-08-26T23:28:59.180Z,96959.78
2022-08-26T23:31:26.719Z,96962.33
2022-08-26T23:34:12.883Z,96964.86
2022-08-26T23:36:42.715Z,96962.91
2022-08-26T23:39:12.843Z,96966.59
2022-08-26T23:41:40.164Z,96965.05
2022-08-26T23:44:07.591Z,96969.56
2022-08-26T23:46:35.374Z,96964.90
2022-08-26T23:49:03.551Z,96966.84
2022-08-26T23:51:49.930Z,96964.46
2022-08-26T23:54:17.419Z,96962.33
2022-08-26T23:56:44.990Z,96961.54
2022-08-26T23:59:12.469Z,96960.94
